Terminal Aerodrome Forecast
Issued by NWS

Home | Current Version | Previous Version | Text Only | Print | Product List | Glossary On
Versions: 1 2 3 4 5 6 7 8 9 10 11 12 13 14 15 16 17 18 19 20
341
FTUS43 KGRR 300530
TAFJXN
TAF
KJXN 300530Z 3006/0106 11004KT P6SM OVC035
     FM301900 10008KT P6SM OVC025
     FM302200 09008KT 4SM -RA OVC015
     FM302300 09009G16KT 2SM -RA BR OVC007=

USA.gov is the U.S. government's official web portal to all federal, state and local government web resources and services.